South Reno (Wolf Run), Nevada Weather observations

Data are for observation ending at time listed.
 Day   Time    Ave.   Ave.  Ave.  Vector   Max.   Stn.    Total    Solar   Ave.  
  of    of     Air    Rel.  Wind   Wind    Wind   Baro.  Precip.   Rad.    Soil  
Year   Day     Temp.  Hum.  Speed  Dir.    Gust   Pres.                    Temp. 
2026   (PST)    F      %     mph   deg.    mph     mb.     in.     W/m2     F   
------------------------------------------------------------------------------
 124    0:00   47.7    63    1.7   193      3.8  99999.0    0.00       1    59.8
 124    0:10   48.6    61    0.9   224      2.3  99999.0    0.00       1    59.7
 124    0:20   48.5    63    0.1   320      2.6  99999.0    0.00       1    59.6
 124    0:30   47.9    66    0.2   327      2.9  99999.0    0.00       1    59.6
 124    0:40   47.2    67    0.1   297      2.0  99999.0    0.00       1    59.5
 124    0:50   47.3    69    0.1   277      2.7  99999.0    0.00       1    59.5
 124    1:00   46.7    70    0.0   218      1.5  99999.0    0.00       1    59.4
 124    1:10   46.9    68    0.0     0      0.0  99999.0    0.00       1    59.4
 124    1:20   47.0    68    0.0   197      0.6  99999.0    0.00       1    59.3
 124    1:30   46.7    68    0.0     0      0.0  99999.0    0.00       1    59.3
 124    1:40   45.2    71    0.0     0      0.0  99999.0    0.00       0    59.3
 124    1:50   44.8    71    0.0     0      0.0  99999.0    0.00       0    59.2
 124    2:00   44.9    70    2.9   231      4.9  99999.0    0.00       0    59.1
 124    2:10   45.9    67    3.7   240      4.8  99999.0    0.00       0    59.1
 124    2:20   46.4    67    3.4   242      5.9  99999.0    0.00       0    59.0
 124    2:30   46.4    68    0.0   295      0.7  99999.0    0.00       0    58.9
 124    2:40   46.4    67    0.0     0      0.0  99999.0    0.00       0    58.9
 124    2:50   47.2    63    0.2   313      1.5  99999.0    0.00       0    58.8
 124    3:00   48.0    62    1.3    22      3.7  99999.0    0.00       0    58.8
 124    3:10   47.2    66    1.8    43      5.4  99999.0    0.00       0    58.7
 124    3:20   46.2    69    0.0   351      1.4  99999.0    0.00       0    58.7
 124    3:30   45.3    71    0.5   240      1.9  99999.0    0.00       0    58.6
 124    3:40   44.9    71    2.4   236      4.0  99999.0    0.00       0    58.6
 124    3:50   45.5    69    2.1   218      3.7  99999.0    0.00       0    58.5
 124    4:00   45.9    69    2.6   198      4.1  99999.0    0.00       0    58.5
 124    4:10   45.9    69    2.0   208      4.7  99999.0    0.00       0    58.4
 124    4:20   45.8    69    0.3   220      1.5  99999.0    0.00       0    58.4
 124    4:30   45.4    70    2.8   230      4.5  99999.0    0.00       0    58.3
 124    4:40   45.8    68    1.6   217      3.8  99999.0    0.00       0    58.3
 124    4:50   44.9    70    1.8   230      3.5  99999.0    0.00       1    58.2
 124    5:00   44.6    71    1.7   236      3.1  99999.0    0.00       2    58.2
 124    5:10   44.2    71    2.6   237      4.8  99999.0    0.00       6    58.2
 124    5:20   44.1    74    0.4   239      1.8  99999.0    0.00       9    58.1
 124    5:30   44.6    74    0.8   236      1.8  99999.0    0.00      10    58.0
 124    5:40   45.5    71    2.2   237      4.1  99999.0    0.00      11    58.0
 124    5:50   46.1    70    0.0   236      1.5  99999.0    0.00      12    57.9
 124    6:00   46.5    70    2.2   232      3.8  99999.0    0.00      12    57.9
 124    6:10   47.3    68    0.9   240      3.7  99999.0    0.00      12    57.8
 124    6:20   48.2    65    2.4   221      5.0  99999.0    0.00      12    57.7
 124    6:30   49.0    64    0.6   217      4.0  99999.0    0.00      13    57.7
 124    6:40   49.9    64    0.0   170      1.4  99999.0    0.00      13    57.6
 124    6:50   50.1    63    0.0     0      0.0  99999.0    0.00      12    57.6
 124    7:00   50.1    65    0.0     0      0.0  99999.0    0.00      12    57.5
 124    7:10   50.0    65    0.0   116      1.8  99999.0    0.00      11    57.5
 124    7:20   49.6    64    0.0     0      0.0  99999.0    0.00      11    57.5
 124    7:30   49.8    66    0.0     0      0.0  99999.0    0.00      10    57.5
 124    7:40   49.7    70    0.0   148      0.8  99999.0    0.00      11    57.4
 124    7:50   49.4    71    0.0     0      0.0  99999.0    0.00      11    57.4
 124    8:00   49.7    72    0.0   320      1.2  99999.0    0.00      12    57.4
 124    8:10   51.2    66    0.2    33      2.3  99999.0    0.00      14    57.3
 124    8:20   53.0    59    0.2   329      1.8  99999.0    0.00      22    57.3
 124    8:30   52.4    59    1.0   235      3.7  99999.0    0.00      38    57.3
 124    8:40   53.3    61    0.2   117      3.8  99999.0    0.00      33    57.3
 124    8:50   54.9    56    2.8    94      7.1  99999.0    0.00      39    57.2
 124    9:00   53.7    57    3.1    94      6.3  99999.0    0.00      36    57.2
 124    9:10   52.3    59    3.1    75      6.9  99999.0    0.00      31    57.3
 124    9:20   51.4    62    3.3    41      6.2  99999.0    0.00      31    57.3
 124    9:30   50.9    68    0.9    22      4.2  99999.0    0.00      31    57.3
 124    9:40   51.7    73    0.6   319      3.9  99999.0    0.00      35    57.4
 124    9:50   51.7    70    3.1    55      6.9  99999.0    0.00      33    57.4
 124   10:00   51.0    72    3.8    89      7.5  99999.0    0.00      35    57.4
 124   10:10   50.9    74    1.2   153      3.6  99999.0    0.00      34    57.5
 124   10:20   51.5    74    0.6   166      3.5  99999.0    0.00      33    57.5
 124   10:30   52.6    72    1.0   161      3.7  99999.0    0.00      35    57.5
 124   10:40   52.8    71    1.0   150      4.2  99999.0    0.00      34    57.5
 124   10:50   52.0    72    2.3   104      6.6  99999.0    0.00      33    57.6
 124   11:00   52.9    74    0.8   148      5.0  99999.0    0.01      33    57.6
 124   11:10   52.7    73    2.4   163      5.4  99999.0    0.00      33    57.6
 124   11:20   52.6    74    1.6   156      5.0  99999.0    0.00      32    57.7
 124   11:30   53.1    74    0.7   129      3.2  99999.0    0.00      32    57.7
 124   11:40   53.5    69    3.0   181      6.9  99999.0    0.00      19    57.7
 124   11:50   53.3    64    5.0   213      9.6  99999.0    0.00      13    57.7
 124   12:00   53.0    67    7.7   224     13.1  99999.0    0.00      13    57.8
 124   12:10   51.3    72   10.7   229     18.1  99999.0    0.00      11    57.9
 124   12:20   50.3    75   10.6   231     18.8  99999.0    0.00      14    57.9
 124   12:30   50.4    76    9.5   232     16.5  99999.0    0.00      15    57.9
 124   12:40   52.8    69    8.4   232     14.5  99999.0    0.00      18    57.8
 124   12:50   54.2    61    7.0   220     11.7  99999.0    0.00      18    57.8
 124   13:00   53.8    61    6.9   210     11.1  99999.0    0.00      18    57.9
 124   13:10   53.9    62    7.4   211     11.7  99999.0    0.00      20    57.9
 124   13:20   54.8    57    7.5   218     13.9  99999.0    0.00      20    57.9
 124   13:30   55.6    54    8.2   236     13.5  99999.0    0.00      19    58.0
 124   13:40   54.8    57    7.8   228     11.7  99999.0    0.00      17    58.2
 124   13:50   54.6    59    6.2   226     13.9  99999.0    0.00      15    58.3
 124   14:00   54.6    57    5.7   210      9.5  99999.0    0.00      15    58.4
 124   14:10   55.1    56    5.3   208     11.0  99999.0    0.00      16    58.4
 124   14:20   55.9    55    6.1   210      9.9  99999.0    0.00      18    58.5
 124   14:30   55.7    53    7.0   220     13.4  99999.0    0.00      15    58.7
 124   14:40   54.6    56    7.6   222     13.1  99999.0    0.00      14    58.8
 124   14:50   53.5    58    7.9   222     17.0  99999.0    0.00      14    58.9
 124   15:00   53.5    57    6.4   215     12.7  99999.0    0.00      14    59.0
 124   15:10   52.8    62    7.9   222     14.8  99999.0    0.00      13    59.1
 124   15:20   52.4    65    8.0   206     15.8  99999.0    0.00      14    59.2
 124   15:30   51.6    65    6.9   213     12.9  99999.0    0.00      11    59.3
 124   15:40   50.5    67    8.9   220     16.6  99999.0    0.00      10    59.4
 124   15:50   51.0    66    8.6   239     13.7  99999.0    0.00      10    59.5
 124   16:00   51.0    66    7.1   231     14.8  99999.0    0.00       9    59.5
 124   16:10   50.2    71    5.1   193      9.2  99999.0    0.02       8    59.6
 124   16:20   48.7    76    6.4   203     11.8  99999.0    0.02       8    59.3
 124   16:30   48.5    75    6.9   221     11.9  99999.0    0.00       6    58.8
 124   16:40   48.0    76    5.0   214     12.7  99999.0    0.01       4    58.8
 124   16:50   47.4    78    4.2   231     12.5  99999.0    0.04       3    58.8
 124   17:00   46.7    81    8.6   232     14.2  99999.0    0.06       3    58.8
 124   17:10   46.1    83   10.2   240     15.5  99999.0    0.05       3    58.8
 124   17:20   46.1    83   10.2   239     15.3  99999.0    0.03       4    58.8
 124   17:30   46.1    84    3.3   244      8.9  99999.0    0.05       3    58.8
 124   17:40   45.9    85    6.8   249     13.2  99999.0    0.04       3    58.8
 124   17:50   46.2    83    9.4   250     20.2  99999.0    0.01       3    58.7
 124   18:00   45.7    83    1.6   291      7.8  99999.0    0.00       6    58.7
 124   18:10   45.8    82    2.5    92      7.3  99999.0    0.00       8    58.7
 124   18:20   45.9    84    3.6    72     10.2  99999.0    0.00       7    58.7
 124   18:30   45.9    85    2.1    82      5.0  99999.0    0.00       6    58.7
 124   18:40   45.9    86    1.5    88      5.7  99999.0    0.00       4    58.7
 124   18:50   45.8    86    3.6    95      8.6  99999.0    0.00       1    58.7
 124   19:00   45.3    86    2.3    90      7.2  99999.0    0.00       1    58.7
 124   19:10   44.7    85    0.6   233      3.8  99999.0    0.04       1    58.5
 124   19:20   44.5    86    1.5   217      4.5  99999.0    0.04       1    58.3
 124   19:30   44.2    86    6.3   231     14.5  99999.0    0.02       1    58.2
 124   19:40   45.5    86    4.9   210     14.1  99999.0    0.00       1    58.1
 124   19:50   44.9    86    2.5   111      7.6  99999.0    0.00       1    58.1
 124   20:00   44.2    87    2.3    50      6.6  99999.0    0.00       1    58.1
 124   20:10   44.0    88    3.7   355      6.6  99999.0    0.00       1    58.1

Return to South Reno, Nevada graphs page.


Western Regional Climate Center,wrcc@dri.edu